createdAt,value
2022-09-14T00:00:28.007Z,32
2022-09-14T00:02:57.195Z,31.9
2022-09-14T00:05:13.639Z,32.1
2022-09-14T00:07:29.665Z,32.1
2022-09-14T00:09:46.745Z,32
2022-09-14T00:12:03.381Z,32
2022-09-14T00:14:19.438Z,32.3
2022-09-14T00:16:34.974Z,32.1
2022-09-14T00:18:51.718Z,32.1
2022-09-14T00:21:08.444Z,32.1
2022-09-14T00:23:25.066Z,32
2022-09-14T00:25:41.709Z,31.7
2022-09-14T00:27:58.362Z,32
2022-09-14T00:30:15.124Z,31.8
2022-09-14T00:32:31.822Z,31.8
2022-09-14T00:34:48.482Z,31.9
2022-09-14T00:37:04.735Z,32.1
2022-09-14T00:39:19.552Z,32.7
2022-09-14T00:41:35.375Z,32.6
2022-09-14T00:43:51.088Z,31.8
2022-09-14T00:46:07.354Z,33.7
2022-09-14T00:48:24.191Z,31.9
2022-09-14T00:50:41.018Z,32.1
2022-09-14T00:52:57.848Z,32.2
2022-09-14T00:55:13.877Z,31.8
2022-09-14T00:57:29.555Z,32.8
2022-09-14T00:59:46.427Z,31.3
2022-09-14T01:02:02.619Z,32.3
2022-09-14T01:04:18.327Z,32.6
2022-09-14T01:06:35.116Z,31.9
2022-09-14T01:08:51.921Z,32.4
2022-09-14T01:11:08.757Z,32.1
2022-09-14T01:13:25.485Z,32.1
2022-09-14T01:15:41.662Z,32.1
2022-09-14T01:17:57.360Z,32.7
2022-09-14T01:20:14.192Z,31.9
2022-09-14T01:22:31.685Z,31.7
2022-09-14T01:24:47.738Z,32.1
2022-09-14T01:27:04.587Z,31.9
2022-09-14T01:29:21.233Z,31.9
2022-09-14T01:31:38.119Z,31.9
2022-09-14T01:33:54.881Z,32.1
2022-09-14T01:36:11.142Z,32.3
2022-09-14T01:38:26.787Z,32.3
2022-09-14T01:40:43.830Z,32
2022-09-14T01:43:00.559Z,31.9
2022-09-14T01:45:17.596Z,31.9
2022-09-14T01:47:34.148Z,31.8
2022-09-14T01:49:51.072Z,32.1
2022-09-14T01:52:07.804Z,31.6
2022-09-14T01:54:24.673Z,31.9
2022-09-14T01:56:41.489Z,31.9
2022-09-14T01:58:58.330Z,32.3
2022-09-14T02:01:15.152Z,32.1
2022-09-14T02:03:31.884Z,32
2022-09-14T02:05:48.834Z,31.7
2022-09-14T02:10:21.959Z,32.2
2022-09-14T02:12:37.811Z,32.4
2022-09-14T02:14:54.716Z,32.1
2022-09-14T02:17:11.515Z,31.8
2022-09-14T02:19:28.423Z,32
2022-09-14T02:21:45.371Z,31.9
2022-09-14T02:24:02.203Z,31.6
2022-09-14T02:26:19.107Z,32.1
2022-09-14T02:28:36.036Z,31.5
2022-09-14T02:30:52.910Z,31.9
2022-09-14T02:33:09.745Z,31.9
2022-09-14T02:35:26.596Z,31.6
2022-09-14T02:37:43.522Z,32.1
2022-09-14T02:40:00.420Z,31.5
2022-09-14T02:42:16.708Z,31.9
2022-09-14T02:44:32.326Z,33.1
2022-09-14T02:46:48.941Z,34.2
2022-09-14T02:49:05.411Z,31.4
2022-09-14T02:51:22.362Z,31.8
2022-09-14T02:53:39.170Z,31.7
2022-09-14T02:55:54.922Z,32.3
2022-09-14T02:58:11.930Z,31.8
2022-09-14T03:03:25.213Z,32.2
2022-09-14T03:05:42.179Z,31.7
2022-09-14T03:07:59.284Z,31.7
2022-09-14T03:10:16.147Z,31.7
2022-09-14T03:12:33.172Z,31.4
2022-09-14T03:14:49.649Z,31.4
2022-09-14T03:17:05.510Z,32.6
2022-09-14T03:19:22.547Z,31.9
2022-09-14T03:21:39.507Z,31.7
2022-09-14T03:23:56.453Z,31.6
2022-09-14T03:26:12.989Z,31.4
2022-09-14T03:28:28.903Z,33.1
2022-09-14T03:30:45.139Z,34.6
2022-09-14T03:33:01.977Z,31.3
2022-09-14T03:35:19.047Z,32
2022-09-14T03:37:36.044Z,31.4
2022-09-14T03:39:53.235Z,31.4
2022-09-14T03:42:09.744Z,31.4
2022-09-14T03:44:26.030Z,33.4
2022-09-14T03:46:42.773Z,31.5
2022-09-14T03:48:59.802Z,31.9
2022-09-14T03:51:16.811Z,31.2
2022-09-14T03:53:33.837Z,31.2
2022-09-14T03:55:50.828Z,31.6
2022-09-14T03:58:07.406Z,31.4
2022-09-14T04:00:23.546Z,33.4
2022-09-14T04:02:40.510Z,31.6
2022-09-14T04:04:57.511Z,31.8
2022-09-14T04:07:14.146Z,32
2022-09-14T04:09:30.517Z,33.8
2022-09-14T04:11:47.298Z,31.1
2022-09-14T04:14:04.351Z,32.3
2022-09-14T04:16:21.435Z,32
2022-09-14T04:18:38.380Z,31.7
2022-09-14T04:20:55.466Z,31.9
2022-09-14T04:23:12.147Z,31.6
2022-09-14T04:25:43.849Z,33.9
2022-09-14T04:28:19.516Z,31
2022-09-14T04:30:24.423Z,32.3
2022-09-14T04:32:40.798Z,31.6
2022-09-14T04:34:58.286Z,31.4
2022-09-14T04:37:15.381Z,31.9
2022-09-14T04:39:32.481Z,31.4
2022-09-14T04:41:49.154Z,31.7
2022-09-14T04:44:05.360Z,33.4
2022-09-14T04:46:21.991Z,33.8
2022-09-14T04:48:38.640Z,31.8
2022-09-14T04:50:55.547Z,31.6
2022-09-14T04:53:12.617Z,32.3
2022-09-14T04:55:29.521Z,32.5
2022-09-14T04:57:45.788Z,33.4
2022-09-14T05:00:02.545Z,31.9
2022-09-14T05:02:18.638Z,34.7
2022-09-14T05:04:36.256Z,32.1
2022-09-14T05:09:10.554Z,32.9
2022-09-14T05:11:27.582Z,32.3
2022-09-14T05:13:49.068Z,32.1
2022-09-14T05:16:01.849Z,31.8
2022-09-14T05:18:18.789Z,32.1
2022-09-14T05:20:36.666Z,32.2
2022-09-14T05:22:53.001Z,32.1
2022-09-14T05:25:09.999Z,31.8
2022-09-14T05:27:27.091Z,32
2022-09-14T05:29:43.767Z,32.3
2022-09-14T05:31:59.788Z,34.9
2022-09-14T05:34:16.244Z,33.3
2022-09-14T05:36:32.646Z,33.4
2022-09-14T05:38:49.663Z,32.5
2022-09-14T05:41:06.418Z,34.3
2022-09-14T05:43:23.375Z,32.4
2022-09-14T05:45:41.215Z,32.7
2022-09-14T05:47:57.578Z,32.1
2022-09-14T05:50:14.307Z,31.9
2022-09-14T05:52:30.603Z,33.6
2022-09-14T05:54:47.421Z,33.2
2022-09-14T05:57:03.462Z,33.8
2022-09-14T05:59:19.922Z,33.7
2022-09-14T06:01:36.627Z,34.3
2022-09-14T06:03:53.878Z,33
2022-09-14T06:06:10.949Z,32.7
2022-09-14T06:08:36.781Z,32.4
2022-09-14T06:10:53.676Z,32.4
2022-09-14T06:13:10.998Z,32.4
2022-09-14T06:15:28.056Z,32.4
2022-09-14T06:17:45.131Z,32.4
2022-09-14T06:20:04.813Z,32.3
2022-09-14T06:22:19.637Z,32.1
2022-09-14T06:24:36.758Z,32.2
2022-09-14T06:26:54.088Z,32.5
2022-09-14T06:29:11.073Z,32.2
2022-09-14T06:31:28.021Z,31.9
2022-09-14T06:33:45.288Z,32.6
2022-09-14T06:36:02.308Z,32.4
2022-09-14T06:38:19.349Z,32.4
2022-09-14T06:40:36.346Z,32.8
2022-09-14T06:42:53.307Z,32.4
2022-09-14T06:45:10.392Z,32.8
2022-09-14T06:47:27.426Z,32.8
2022-09-14T06:49:44.866Z,32.4
2022-09-14T06:52:01.797Z,32.3
2022-09-14T06:54:19.019Z,32.3
2022-09-14T06:56:35.909Z,32.4
2022-09-14T06:58:53.039Z,32.4
2022-09-14T07:01:09.844Z,32.4
2022-09-14T07:03:26.638Z,32.6
2022-09-14T07:05:42.109Z,34.2
2022-09-14T07:07:58.473Z,34.3
2022-09-14T07:10:15.755Z,33.6
2022-09-14T07:12:32.895Z,32.8
2022-09-14T07:14:49.932Z,32.9
2022-09-14T07:17:06.383Z,33.4
2022-09-14T07:19:22.554Z,33.6
2022-09-14T07:21:39.733Z,33.3
2022-09-14T07:23:55.293Z,34.7
2022-09-14T07:26:11.199Z,34.4
2022-09-14T07:28:27.630Z,34.2
2022-09-14T07:30:44.908Z,33.3
2022-09-14T07:33:01.900Z,33.2
2022-09-14T07:35:18.460Z,33
2022-09-14T07:37:34.403Z,33.8
2022-09-14T07:40:01.420Z,32.4
2022-09-14T07:44:34.544Z,31.7
2022-09-14T07:46:51.107Z,31.8
2022-09-14T07:49:07.555Z,31.9
2022-09-14T07:51:24.034Z,31.6
2022-09-14T07:53:40.510Z,31.3
2022-09-14T07:55:57.046Z,31.8
2022-09-14T07:58:25.577Z,31.4
2022-09-14T08:00:54.157Z,33.8
2022-09-14T08:03:10.467Z,32.4
2022-09-14T08:05:26.350Z,32.1
2022-09-14T08:07:41.236Z,32.9
2022-09-14T08:09:56.652Z,33.3
2022-09-14T08:12:11.881Z,33.1
2022-09-14T08:14:27.110Z,32.9
2022-09-14T08:16:43.047Z,33.3
2022-09-14T08:18:57.305Z,33.2
2022-09-14T08:21:13.271Z,33.1
2022-09-14T08:23:28.814Z,33.3
2022-09-14T08:25:44.005Z,33.7
2022-09-14T08:27:59.105Z,33.9
2022-09-14T08:30:14.569Z,33.7
2022-09-14T08:32:29.819Z,33.3
2022-09-14T08:34:45.123Z,33.3
2022-09-14T08:37:14.625Z,33.8
2022-09-14T08:39:29.950Z,33.1
2022-09-14T08:41:45.084Z,32.9
2022-09-14T08:44:00.830Z,33.3
2022-09-14T08:46:15.914Z,34.4
2022-09-14T08:48:31.391Z,33.6
2022-09-14T08:50:46.729Z,32.6
2022-09-14T08:53:01.815Z,33.8
2022-09-14T08:55:17.045Z,33.2
2022-09-14T08:57:32.233Z,33.1
2022-09-14T08:59:47.284Z,33.9
2022-09-14T09:01:08.106Z,35
2022-09-14T09:03:23.246Z,33.3
2022-09-14T09:05:37.779Z,33.3
2022-09-14T09:07:53.329Z,34.3
2022-09-14T09:10:08.413Z,34
2022-09-14T09:12:23.532Z,33.9
2022-09-14T09:14:38.602Z,34.5
2022-09-14T09:16:53.572Z,34.1
2022-09-14T09:19:08.883Z,33.6
2022-09-14T09:21:23.592Z,33.5
2022-09-14T09:23:38.473Z,33.6
2022-09-14T09:25:53.570Z,33.8
2022-09-14T09:28:08.522Z,33.9
2022-09-14T09:30:23.491Z,33.9
2022-09-14T09:32:38.468Z,33.6
2022-09-14T09:34:53.419Z,33.8
2022-09-14T09:37:08.483Z,33.6
2022-09-14T09:39:23.463Z,34.1
2022-09-14T09:41:38.537Z,34.3
2022-09-14T09:44:03.610Z,34.3
2022-09-14T09:46:18.672Z,34.1
2022-09-14T09:48:33.629Z,33.8
2022-09-14T09:50:48.667Z,34.6
2022-09-14T09:53:06.747Z,34.7
2022-09-14T09:55:18.854Z,34.1
2022-09-14T09:57:33.747Z,34
2022-09-14T09:59:48.262Z,33.2
2022-09-14T10:02:03.829Z,34.2
2022-09-14T10:04:18.607Z,33.9
2022-09-14T10:06:33.482Z,33.4
2022-09-14T10:08:48.445Z,33.8
2022-09-14T10:11:03.239Z,33.6
2022-09-14T10:13:18.679Z,33.8
2022-09-14T10:15:33.133Z,33.9
2022-09-14T10:17:47.977Z,33.4
2022-09-14T10:20:02.950Z,33.4
2022-09-14T10:22:18.664Z,33.4
2022-09-14T10:24:32.632Z,33.4
2022-09-14T10:26:47.572Z,33.7
2022-09-14T10:29:01.926Z,33.7
2022-09-14T10:31:17.413Z,34
2022-09-14T10:33:32.957Z,33.9
2022-09-14T10:35:47.527Z,33.9
2022-09-14T10:38:02.111Z,33.6
2022-09-14T10:42:32.000Z,34.1
2022-09-14T10:44:46.786Z,34.1
2022-09-14T10:47:04.646Z,34.3
2022-09-14T10:49:16.544Z,34
2022-09-14T10:51:31.510Z,33.8
2022-09-14T10:53:46.290Z,33.8
2022-09-14T10:56:01.200Z,33.6
2022-09-14T10:58:19.158Z,33.6
2022-09-14T11:00:31.015Z,33.5
2022-09-14T11:02:45.946Z,33.5
2022-09-14T11:05:00.565Z,33.8
2022-09-14T11:07:15.476Z,33.3
2022-09-14T11:09:30.303Z,33.6
2022-09-14T11:11:45.340Z,33.5
2022-09-14T11:14:00.017Z,33.4
2022-09-14T11:16:14.885Z,33.6
2022-09-14T11:18:29.751Z,33.7
2022-09-14T11:20:44.593Z,33.6
2022-09-14T11:22:59.481Z,33.7
2022-09-14T11:25:14.214Z,33.2
2022-09-14T11:27:29.177Z,33.2
2022-09-14T11:29:44.153Z,33.7
2022-09-14T11:32:17.206Z,33.6
2022-09-14T11:34:22.316Z,33.6
2022-09-14T11:36:37.137Z,33.6
2022-09-14T11:38:52.076Z,33.3
2022-09-14T11:41:06.855Z,33.8
2022-09-14T11:43:23.018Z,33.7
2022-09-14T11:45:36.626Z,33.3
2022-09-14T11:47:51.583Z,33.4
2022-09-14T11:50:20.728Z,33.8
2022-09-14T11:52:35.516Z,33.6
2022-09-14T11:54:50.269Z,33.7
2022-09-14T11:57:05.148Z,33.8
2022-09-14T11:59:20.032Z,33.9
2022-09-14T12:01:34.892Z,33.8
2022-09-14T12:03:51.964Z,32.8
2022-09-14T12:06:04.510Z,33.1
2022-09-14T12:08:19.678Z,33.8
2022-09-14T12:10:34.181Z,33.8
2022-09-14T12:12:49.051Z,33.7
2022-09-14T12:15:03.900Z,33.7
2022-09-14T12:17:40.877Z,33.8
2022-09-14T12:19:42.955Z,33.1
2022-09-14T12:21:57.888Z,33.9
2022-09-14T12:24:12.634Z,33.6
2022-09-14T12:26:27.503Z,33.5
2022-09-14T12:28:42.308Z,34.1
2022-09-14T12:30:57.224Z,33.8
2022-09-14T12:33:12.237Z,33.4
2022-09-14T12:35:26.419Z,33.9
2022-09-14T12:37:41.741Z,33.1
2022-09-14T12:39:56.551Z,33.6
2022-09-14T12:42:11.320Z,33.6
2022-09-14T12:44:26.327Z,33.1
2022-09-14T12:46:41.195Z,33.3
2022-09-14T12:48:56.051Z,33.6
2022-09-14T12:51:10.740Z,33.6
2022-09-14T12:53:25.568Z,33.8
2022-09-14T12:55:40.458Z,33.6
2022-09-14T12:57:55.236Z,33.7
2022-09-14T13:00:10.781Z,33.3
2022-09-14T13:02:25.225Z,32.7
2022-09-14T13:04:39.819Z,33.3
2022-09-14T13:06:54.753Z,33.6
2022-09-14T13:09:09.868Z,33.6
2022-09-14T13:11:24.508Z,33.4
2022-09-14T13:13:39.286Z,33.5
2022-09-14T13:15:54.318Z,33.4
2022-09-14T13:18:08.986Z,32.9
2022-09-14T13:20:23.716Z,33.6
2022-09-14T13:22:38.592Z,33.3
2022-09-14T13:24:53.416Z,33.5
2022-09-14T13:27:08.286Z,33.6
2022-09-14T13:29:23.072Z,33.6
2022-09-14T13:31:37.955Z,33.4
2022-09-14T13:33:52.771Z,33.1
2022-09-14T13:36:07.675Z,33.3
2022-09-14T13:38:22.382Z,33.4
2022-09-14T13:40:37.269Z,33.8
2022-09-14T13:42:52.194Z,33.1
2022-09-14T13:45:06.946Z,33.3
2022-09-14T13:47:21.796Z,33.4
2022-09-14T13:49:36.741Z,32.9
2022-09-14T13:51:51.862Z,33
2022-09-14T13:54:19.256Z,33.3
2022-09-14T13:56:33.951Z,33.1
2022-09-14T13:58:48.723Z,33.2
2022-09-14T14:01:03.582Z,33.6
2022-09-14T14:03:18.408Z,33.5
2022-09-14T14:05:33.255Z,33.6
2022-09-14T14:07:48.216Z,33.3
2022-09-14T14:10:03.054Z,33.5
2022-09-14T14:12:18.139Z,33.6
2022-09-14T14:14:32.959Z,33.6
2022-09-14T14:16:48.157Z,33.7
2022-09-14T14:19:02.865Z,33.7
2022-09-14T14:21:17.891Z,33.9
2022-09-14T14:23:32.819Z,33.6
2022-09-14T14:26:14.370Z,33.4
2022-09-14T14:28:29.296Z,33.6
2022-09-14T14:30:43.963Z,33.6
2022-09-14T14:32:59.006Z,33.6
2022-09-14T14:35:13.805Z,33.5
2022-09-14T14:37:28.642Z,33.6
2022-09-14T14:39:46.506Z,33.9
2022-09-14T14:41:58.252Z,33.6
2022-09-14T14:44:13.230Z,33.8
2022-09-14T14:46:28.060Z,33.8
2022-09-14T14:48:43.097Z,33.6
2022-09-14T14:50:57.619Z,33.1
2022-09-14T14:53:12.482Z,33.4
2022-09-14T14:55:27.397Z,33.7
2022-09-14T14:57:42.174Z,33.8
2022-09-14T14:59:57.074Z,33.6
2022-09-14T15:03:22.894Z,33.8
2022-09-14T15:05:37.736Z,34.1
2022-09-14T15:07:52.567Z,33.6
2022-09-14T15:10:07.377Z,33.8
2022-09-14T15:12:22.231Z,33.6
2022-09-14T15:14:37.313Z,33.6
2022-09-14T15:16:51.980Z,33.1
2022-09-14T15:19:06.774Z,33.6
2022-09-14T15:21:21.635Z,33.6
2022-09-14T15:23:35.891Z,33.7
2022-09-14T15:25:51.299Z,33.3
2022-09-14T15:28:06.203Z,33.4
2022-09-14T15:30:20.980Z,33.6
2022-09-14T15:32:35.770Z,33.9
2022-09-14T15:34:50.596Z,33.4
2022-09-14T15:37:06.102Z,33.6
2022-09-14T15:39:20.343Z,33.5
2022-09-14T15:41:35.232Z,33.8
2022-09-14T15:43:50.244Z,33.8
2022-09-14T15:46:04.966Z,33.3
2022-09-14T15:48:19.787Z,33.6
2022-09-14T15:50:34.921Z,33.7
2022-09-14T15:52:49.362Z,33.6
2022-09-14T15:55:03.795Z,33.6
2022-09-14T15:57:19.086Z,33.2
2022-09-14T15:59:34.044Z,34.2
2022-09-14T16:01:48.947Z,33.8
2022-09-14T16:04:03.662Z,33.6
2022-09-14T16:06:18.477Z,33.4
2022-09-14T16:08:33.667Z,33.2
2022-09-14T16:10:48.670Z,32.4
2022-09-14T16:13:04.179Z,31.9
2022-09-14T16:15:18.969Z,33
2022-09-14T16:17:33.845Z,32.7
2022-09-14T16:19:48.668Z,33.1
2022-09-14T16:22:03.515Z,33.6
2022-09-14T16:24:18.437Z,33.6
2022-09-14T16:26:32.971Z,33.6
2022-09-14T16:28:49.156Z,32.4
2022-09-14T16:31:04.902Z,31.8
2022-09-14T16:33:19.346Z,32.6
2022-09-14T16:35:34.481Z,31.8
2022-09-14T16:37:50.388Z,32.3
2022-09-14T16:42:19.442Z,32.1
2022-09-14T16:44:34.446Z,31.8
2022-09-14T16:46:49.591Z,31.6
2022-09-14T16:49:04.504Z,31.8
2022-09-14T16:51:20.054Z,33.6
2022-09-14T16:53:35.478Z,33.7
2022-09-14T16:55:51.082Z,33.9
2022-09-14T16:58:05.989Z,33.9
2022-09-14T17:00:21.864Z,34
2022-09-14T17:02:37.083Z,32.8
2022-09-14T17:04:52.662Z,33.5
2022-09-14T17:07:08.196Z,33.8
2022-09-14T17:09:23.782Z,34
2022-09-14T17:11:39.598Z,33.6
2022-09-14T17:13:54.523Z,33.9
2022-09-14T17:16:09.968Z,32.4
2022-09-14T17:18:25.640Z,34
2022-09-14T17:20:41.252Z,33.8
2022-09-14T17:22:56.116Z,33
2022-09-14T17:25:14.952Z,32.7
2022-09-14T17:27:27.454Z,34.3
2022-09-14T17:29:42.283Z,34.1
2022-09-14T17:31:58.485Z,32.9
2022-09-14T17:34:14.194Z,34.6
2022-09-14T17:36:29.930Z,33.8
2022-09-14T17:38:45.616Z,34.1
2022-09-14T17:41:01.413Z,34.1
2022-09-14T17:43:17.040Z,34
2022-09-14T17:45:32.212Z,34
2022-09-14T17:47:48.350Z,34.1
2022-09-14T17:50:03.529Z,34.1
2022-09-14T17:52:19.845Z,34.4
2022-09-14T17:54:35.070Z,34.1
2022-09-14T17:56:50.887Z,32.7
2022-09-14T17:59:06.377Z,34
2022-09-14T18:01:21.729Z,34
2022-09-14T18:03:38.101Z,34.1
2022-09-14T18:05:53.896Z,34.3
2022-09-14T18:08:09.532Z,33.9
2022-09-14T18:10:25.237Z,34.1
2022-09-14T18:12:41.057Z,33.3
2022-09-14T18:14:56.536Z,33.5
2022-09-14T18:17:12.133Z,33.5
2022-09-14T18:19:27.312Z,32.8
2022-09-14T18:21:43.409Z,33.8
2022-09-14T18:23:59.183Z,33.7
2022-09-14T18:26:15.044Z,33.6
2022-09-14T18:28:30.706Z,34.3
2022-09-14T18:30:46.670Z,34.1
2022-09-14T18:33:01.685Z,33.6
2022-09-14T18:35:17.516Z,34.2
2022-09-14T18:37:33.098Z,32.8
2022-09-14T18:39:48.801Z,33.1
2022-09-14T18:42:04.993Z,33.4
2022-09-14T18:44:20.265Z,33.2
2022-09-14T18:46:36.307Z,33.4
2022-09-14T18:48:52.202Z,33
2022-09-14T18:51:07.944Z,33.7
2022-09-14T18:53:23.140Z,32.9
2022-09-14T18:55:38.310Z,32.9
2022-09-14T18:57:54.351Z,33.5
2022-09-14T19:00:10.987Z,33.3
2022-09-14T19:02:25.999Z,33.2
2022-09-14T19:04:41.573Z,32.9
2022-09-14T19:06:57.490Z,33.2
2022-09-14T19:09:13.439Z,33.4
2022-09-14T19:11:29.050Z,33.4
2022-09-14T19:13:44.749Z,33.2
2022-09-14T19:16:00.473Z,33.3
2022-09-14T19:18:16.014Z,33.6
2022-09-14T19:20:48.918Z,33.2
2022-09-14T19:23:05.396Z,33.4
2022-09-14T19:25:21.154Z,33.3
2022-09-14T19:27:36.903Z,33
2022-09-14T19:29:52.501Z,33.4
2022-09-14T19:32:08.377Z,33.3
2022-09-14T19:34:24.258Z,33.6
2022-09-14T19:36:40.603Z,33.9
2022-09-14T19:38:55.401Z,33.4
2022-09-14T19:41:11.366Z,33.3
2022-09-14T19:43:27.076Z,33.3
2022-09-14T19:45:42.613Z,33.7
2022-09-14T19:47:58.490Z,33.3
2022-09-14T19:50:14.169Z,33.8
2022-09-14T19:52:29.987Z,33.8
2022-09-14T19:54:44.960Z,32.2
2022-09-14T19:57:01.753Z,33.6
2022-09-14T19:59:16.618Z,33.1
2022-09-14T20:01:32.957Z,32.8
2022-09-14T20:03:48.064Z,33.3
2022-09-14T20:06:03.779Z,33.3
2022-09-14T20:08:19.049Z,33
2022-09-14T20:12:51.222Z,32.9
2022-09-14T20:15:07.066Z,33.9
2022-09-14T20:17:22.499Z,33.4
2022-09-14T20:19:37.754Z,32.7
2022-09-14T20:21:54.580Z,34.2
2022-09-14T20:24:24.123Z,33.1
2022-09-14T20:26:40.392Z,33.6
2022-09-14T20:28:55.759Z,33.6
2022-09-14T20:31:11.516Z,33.7
2022-09-14T20:33:27.146Z,33
2022-09-14T20:35:42.880Z,33.6
2022-09-14T20:37:58.601Z,33.8
2022-09-14T20:40:14.158Z,33.6
2022-09-14T20:42:29.253Z,32.8
2022-09-14T20:44:44.801Z,33.6
2022-09-14T20:46:59.715Z,32.8
2022-09-14T20:49:15.027Z,33.3
2022-09-14T20:51:31.288Z,33.2
2022-09-14T20:53:47.235Z,33.3
2022-09-14T20:56:03.201Z,33.6
2022-09-14T20:58:18.811Z,34.4
2022-09-14T21:03:23.539Z,32.9
2022-09-14T21:05:39.675Z,33.8
2022-09-14T21:07:56.561Z,33.3
2022-09-14T21:10:11.729Z,33.3
2022-09-14T21:12:27.267Z,32.8
2022-09-14T21:14:43.246Z,33.1
2022-09-14T21:16:58.927Z,33.2
2022-09-14T21:19:14.781Z,33.4
2022-09-14T21:21:30.172Z,33.4
2022-09-14T21:23:45.588Z,32.4
2022-09-14T21:26:01.062Z,32.7
2022-09-14T21:28:16.336Z,32.4
2022-09-14T21:30:32.544Z,33.1
2022-09-14T21:32:48.624Z,33.4
2022-09-14T21:35:04.457Z,33.2
2022-09-14T21:37:20.323Z,33.1
2022-09-14T21:39:36.126Z,33.6
2022-09-14T21:41:55.918Z,33.7
2022-09-14T21:44:08.477Z,33.6
2022-09-14T21:46:23.588Z,33.3
2022-09-14T21:48:39.160Z,34
2022-09-14T21:50:53.894Z,32.6
2022-09-14T21:53:09.491Z,32.9
2022-09-14T21:55:25.515Z,33.9
2022-09-14T21:57:41.147Z,33.4
2022-09-14T21:59:56.380Z,32.4
2022-09-14T22:02:12.519Z,33.3
2022-09-14T22:04:28.476Z,33.4
2022-09-14T22:06:44.114Z,32.8
2022-09-14T22:08:59.403Z,32.3
2022-09-14T22:11:15.179Z,33.7
2022-09-14T22:13:30.506Z,32.6
2022-09-14T22:15:46.628Z,32.9
2022-09-14T22:18:02.643Z,33.8
2022-09-14T22:20:18.687Z,32.9
2022-09-14T22:22:34.152Z,33.1
2022-09-14T22:24:49.387Z,32.4
2022-09-14T22:27:05.643Z,32.9
2022-09-14T22:29:21.644Z,32.8
2022-09-14T22:31:37.580Z,32.9
2022-09-14T22:33:53.482Z,33.2
2022-09-14T22:36:09.377Z,32.3
2022-09-14T22:38:25.588Z,33.1
2022-09-14T22:40:41.107Z,33.1
2022-09-14T22:42:56.710Z,33.1
2022-09-14T22:45:11.915Z,32.3
2022-09-14T22:47:28.152Z,33.3
2022-09-14T22:49:43.704Z,33.5
2022-09-14T22:51:59.102Z,32.7
2022-09-14T22:54:14.943Z,33.4
2022-09-14T22:56:30.698Z,32.4
2022-09-14T22:58:46.506Z,32.8
2022-09-14T23:01:02.536Z,32.9
2022-09-14T23:03:18.685Z,33.4
2022-09-14T23:05:34.575Z,33
2022-09-14T23:07:50.493Z,32.6
2022-09-14T23:10:06.538Z,32.6
2022-09-14T23:14:38.167Z,32.6
2022-09-14T23:16:53.808Z,32.6
2022-09-14T23:19:09.930Z,32.9
2022-09-14T23:21:27.022Z,32.6
2022-09-14T23:23:42.531Z,33.4
2022-09-14T23:25:58.317Z,32.8
2022-09-14T23:28:14.100Z,32.5
2022-09-14T23:30:29.485Z,32.5
2022-09-14T23:32:45.968Z,32.8
2022-09-14T23:35:02.034Z,32.9
2022-09-14T23:37:18.434Z,33
2022-09-14T23:39:34.509Z,33.6
2022-09-14T23:41:50.938Z,32.8
2022-09-14T23:44:06.815Z,33.1
2022-09-14T23:46:23.217Z,32.4
2022-09-14T23:48:39.249Z,33.3
2022-09-14T23:50:55.192Z,32.9
2022-09-14T23:53:11.571Z,33.1
2022-09-14T23:55:27.562Z,33.1
2022-09-14T23:57:44.414Z,32.8
